Hlavní strana
METAR-TAF:

METAR-TAF

Letiště :

Letiště Vodochody

Praha, Česká republika

zeměpisná šířka: 50-12-59N, zeměpisná délka: 014-23-42E, výška: 280 m

Aktuální stav počasí

Zpráva byla vytvořena před 16 hodinami a 50 minutami, v 14:00 UTC
Východní vítr 6 kt
Teplota -1°C
Vlhkost vzduchu 80%
Tlak 1023 hPa
Viditelnost 10 km a více
Oblačno až skoro zataženo ve výšce 3400 ft

METAR: LKVO 141400Z 10006KT 9999 BKN034 M01/M04 Q1023

Čas: 07:50 (06:50 UTC)


TAF: chybějící

Stav a předpovědi počasí z více než 4 000 letišť (zprávy METAR a TAF).

Červené a žluté tečky na mapě představují dostupné meteorologické stanice.

Když kurzor umístíte na tečku, zobrazí se název stanice.

Pak kliknutím zobrazíte stav a předpověď počasí.

Chcete-li změnit mapu, kliknutím na zelené tlačítko se znaménkem +mapu přiblížíte, kliknutím na zelené tlačítko se znaménkem – mapu oddálíte a kliknutím na zelené šipky přejdete na sousední mapy.


METAR-TAF: